Time,TemperatureF,DewpointF,PressureIn,WindDirection,WindDirectionDegrees,WindSpeedMPH,WindSpeedGustMPH,Humidity,HourlyPrecipIn,Conditions,Clouds,dailyrainin,SoftwareType,DateUTC
2013-04-27 00:01:00,47.0,38.0,-100.00,North,-999,-999.0,-999.0,72,-99.99,,,-99.99,,2013-04-27 07:01:00,
2013-04-27 00:11:00,47.0,38.0,-100.00,North,-999,-999.0,-999.0,72,-99.99,,,-99.99,,2013-04-27 07:11:00,
2013-04-27 00:21:00,47.0,38.0,-100.00,North,-999,-999.0,-999.0,72,-99.99,,,-99.99,,2013-04-27 07:21:00,
2013-04-27 00:31:00,46.0,39.0,-100.00,North,-999,-999.0,-999.0,75,-99.99,,,-99.99,,2013-04-27 07:31:00,
2013-04-27 00:42:00,46.0,39.0,-100.00,North,-999,-999.0,-999.0,75,-99.99,,,-99.99,,2013-04-27 07:42:00,
2013-04-27 00:52:00,46.0,39.0,-100.00,North,-999,-999.0,-999.0,75,-99.99,,,-99.99,,2013-04-27 07:52:00,
2013-04-27 01:01:00,44.0,37.0,-100.00,North,-999,-999.0,-999.0,76,-99.99,,,-99.99,,2013-04-27 08:01:00,
2013-04-27 01:11:00,44.0,37.0,-100.00,North,-999,-999.0,-999.0,76,-99.99,,,-99.99,,2013-04-27 08:11:00,
2013-04-27 01:21:00,44.0,37.0,-100.00,North,-999,-999.0,-999.0,76,-99.99,,,-99.99,,2013-04-27 08:21:00,
2013-04-27 01:33:00,43.0,36.0,-100.00,North,-999,-999.0,-999.0,77,-99.99,,,-99.99,,2013-04-27 08:33:00,
2013-04-27 01:42:00,43.0,36.0,-100.00,North,-999,-999.0,-999.0,77,-99.99,,,-99.99,,2013-04-27 08:42:00,
2013-04-27 01:52:00,43.0,36.0,-100.00,North,-999,-999.0,-999.0,77,-99.99,,,-99.99,,2013-04-27 08:52:00,
2013-04-27 02:01:00,41.0,35.0,-100.00,North,-999,-999.0,-999.0,79,-99.99,,,-99.99,,2013-04-27 09:01:00,
2013-04-27 02:11:00,41.0,35.0,-100.00,North,-999,-999.0,-999.0,79,-99.99,,,-99.99,,2013-04-27 09:11:00,
2013-04-27 02:21:00,41.0,35.0,-100.00,North,-999,-999.0,-999.0,79,-99.99,,,-99.99,,2013-04-27 09:21:00,
2013-04-27 02:33:00,41.0,35.0,-100.00,North,-999,-999.0,-999.0,79,-99.99,,,-99.99,,2013-04-27 09:33:00,
2013-04-27 03:02:00,40.0,35.0,-100.00,North,-999,-999.0,-999.0,82,-99.99,,,-99.99,,2013-04-27 10:02:00,
2013-04-27 03:12:00,40.0,35.0,-100.00,North,-999,-999.0,-999.0,82,-99.99,,,-99.99,,2013-04-27 10:12:00,
2013-04-27 03:22:00,40.0,35.0,-100.00,North,-999,-999.0,-999.0,82,-99.99,,,-99.99,,2013-04-27 10:22:00,
2013-04-27 03:32:00,38.0,34.0,-100.00,North,-999,-999.0,-999.0,85,-99.99,,,-99.99,,2013-04-27 10:32:00,
2013-04-27 03:52:00,38.0,34.0,-100.00,North,-999,-999.0,-999.0,85,-99.99,,,-99.99,,2013-04-27 10:52:00,
2013-04-27 04:02:00,38.0,34.0,-100.00,North,-999,-999.0,-999.0,85,-99.99,,,-99.99,,2013-04-27 11:02:00,
2013-04-27 04:11:00,38.0,34.0,-100.00,North,-999,-999.0,-999.0,85,-99.99,,,-99.99,,2013-04-27 11:11:00,
2013-04-27 04:22:00,38.0,34.0,-100.00,North,-999,-999.0,-999.0,85,-99.99,,,-99.99,,2013-04-27 11:22:00,
2013-04-27 04:31:00,37.0,33.0,-100.00,North,-999,-999.0,-999.0,86,-99.99,,,-99.99,,2013-04-27 11:31:00,
2013-04-27 04:42:00,37.0,33.0,-100.00,North,-999,-999.0,-999.0,86,-99.99,,,-99.99,,2013-04-27 11:42:00,
2013-04-27 04:52:00,37.0,33.0,-100.00,North,-999,-999.0,-999.0,86,-99.99,,,-99.99,,2013-04-27 11:52:00,
2013-04-27 05:01:00,37.0,33.0,-100.00,North,-999,-999.0,-999.0,86,-99.99,,,-99.99,,2013-04-27 12:01:00,
2013-04-27 05:11:00,37.0,33.0,-100.00,North,-999,-999.0,-999.0,86,-99.99,,,-99.99,,2013-04-27 12:11:00,
2013-04-27 05:21:00,37.0,33.0,-100.00,North,-999,-999.0,-999.0,86,-99.99,,,-99.99,,2013-04-27 12:21:00,
2013-04-27 05:32:00,36.0,33.0,-100.00,North,-999,-999.0,-999.0,87,-99.99,,,-99.99,,2013-04-27 12:32:00,
2013-04-27 05:42:00,36.0,33.0,-100.00,North,-999,-999.0,-999.0,87,-99.99,,,-99.99,,2013-04-27 12:42:00,
2013-04-27 05:52:00,36.0,33.0,-100.00,North,-999,-999.0,-999.0,89,-99.99,,,-99.99,,2013-04-27 12:52:00,
2013-04-27 06:01:00,36.0,33.0,-100.00,North,-999,-999.0,-999.0,89,-99.99,,,-99.99,,2013-04-27 13:01:00,
2013-04-27 06:11:00,36.0,33.0,-100.00,North,-999,-999.0,-999.0,89,-99.99,,,-99.99,,2013-04-27 13:11:00,
2013-04-27 06:21:00,36.0,33.0,-100.00,North,-999,-999.0,-999.0,89,-99.99,,,-99.99,,2013-04-27 13:21:00,
2013-04-27 06:32:00,36.0,33.0,-100.00,North,-999,-999.0,-999.0,89,-99.99,,,-99.99,,2013-04-27 13:32:00,
2013-04-27 07:02:00,35.0,32.0,-100.00,North,-999,-999.0,-999.0,89,-99.99,,,-99.99,,2013-04-27 14:02:00,
2013-04-27 07:11:00,35.0,32.0,-100.00,North,-999,-999.0,-999.0,89,-99.99,,,-99.99,,2013-04-27 14:11:00,
2013-04-27 07:21:00,35.0,32.0,-100.00,North,-999,-999.0,-999.0,89,-99.99,,,-99.99,,2013-04-27 14:21:00,
2013-04-27 07:31:00,36.0,32.0,-100.00,North,-999,-999.0,-999.0,86,-99.99,,,-99.99,,2013-04-27 14:31:00,
2013-04-27 07:42:00,36.0,32.0,-100.00,North,-999,-999.0,-999.0,86,-99.99,,,-99.99,,2013-04-27 14:42:00,
2013-04-27 07:52:00,36.0,32.0,-100.00,North,-999,-999.0,-999.0,86,-99.99,,,-99.99,,2013-04-27 14:52:00,
2013-04-27 08:01:00,40.0,35.0,-100.00,North,-999,-999.0,-999.0,82,-99.99,,,-99.99,,2013-04-27 15:01:00,
2013-04-27 08:11:00,40.0,35.0,-100.00,North,-999,-999.0,-999.0,82,-99.99,,,-99.99,,2013-04-27 15:11:00,
2013-04-27 08:21:00,40.0,35.0,-100.00,North,-999,-999.0,-999.0,82,-99.99,,,-99.99,,2013-04-27 15:21:00,
2013-04-27 08:33:00,56.0,36.0,-100.00,North,-999,-999.0,-999.0,47,-99.99,,,-99.99,,2013-04-27 15:33:00,
2013-04-27 08:43:00,56.0,36.0,-100.00,North,-999,-999.0,-999.0,47,-99.99,,,-99.99,,2013-04-27 15:43:00,
2013-04-27 08:53:00,56.0,36.0,-100.00,North,-999,-999.0,-999.0,47,-99.99,,,-99.99,,2013-04-27 15:53:00,
2013-04-27 09:02:00,66.0,37.0,-100.00,North,-999,-999.0,-999.0,34,-99.99,,,-99.99,,2013-04-27 16:02:00,
2013-04-27 09:13:00,66.0,37.0,-100.00,North,-999,-999.0,-999.0,34,-99.99,,,-99.99,,2013-04-27 16:13:00,
2013-04-27 09:22:00,66.0,37.0,-100.00,North,-999,-999.0,-999.0,34,-99.99,,,-99.99,,2013-04-27 16:22:00,
2013-04-27 09:32:00,75.0,39.0,-100.00,North,-999,-999.0,-999.0,27,-99.99,,,-99.99,,2013-04-27 16:32:00,
2013-04-27 10:02:00,80.0,35.0,-100.00,North,-999,-999.0,-999.0,20,-99.99,,,-99.99,,2013-04-27 17:02:00,
2013-04-27 10:11:00,80.0,35.0,-100.00,North,-999,-999.0,-999.0,20,-99.99,,,-99.99,,2013-04-27 17:11:00,
2013-04-27 10:22:00,80.0,35.0,-100.00,North,-999,-999.0,-999.0,20,-99.99,,,-99.99,,2013-04-27 17:22:00,
2013-04-27 12:32:00,85.0,34.0,-100.00,North,-999,-999.0,-999.0,16,-99.99,,,-99.99,,2013-04-27 19:32:00,
2013-04-27 12:42:00,85.0,34.0,-100.00,North,-999,-999.0,-999.0,16,-99.99,,,-99.99,,2013-04-27 19:42:00,
2013-04-27 12:53:00,86.0,36.0,-100.00,North,-999,-999.0,-999.0,17,-99.99,,,-99.99,,2013-04-27 19:53:00,
2013-04-27 13:02:00,86.0,36.0,-100.00,North,-999,-999.0,-999.0,17,-99.99,,,-99.99,,2013-04-27 20:02:00,
2013-04-27 13:11:00,86.0,36.0,-100.00,North,-999,-999.0,-999.0,17,-99.99,,,-99.99,,2013-04-27 20:11:00,
2013-04-27 13:21:00,86.0,36.0,-100.00,North,-999,-999.0,-999.0,17,-99.99,,,-99.99,,2013-04-27 20:21:00,
2013-04-27 13:31:00,86.0,31.0,-100.00,North,-999,-999.0,-999.0,14,-99.99,,,-99.99,,2013-04-27 20:31:00,
2013-04-27 13:42:00,86.0,31.0,-100.00,North,-999,-999.0,-999.0,14,-99.99,,,-99.99,,2013-04-27 20:42:00,
2013-04-27 13:52:00,86.0,31.0,-100.00,North,-999,-999.0,-999.0,14,-99.99,,,-99.99,,2013-04-27 20:52:00,
2013-04-27 14:02:00,86.0,31.0,-100.00,North,-999,-999.0,-999.0,14,-99.99,,,-99.99,,2013-04-27 21:02:00,
2013-04-27 14:33:00,85.0,44.0,-100.00,North,-999,-999.0,-999.0,24,-99.99,,,-99.99,,2013-04-27 21:33:00,
2013-04-27 14:43:00,85.0,44.0,-100.00,North,-999,-999.0,-999.0,24,-99.99,,,-99.99,,2013-04-27 21:43:00,
2013-04-27 14:53:00,85.0,44.0,-100.00,North,-999,-999.0,-999.0,24,-99.99,,,-99.99,,2013-04-27 21:53:00,
2013-04-27 15:02:00,85.0,39.0,-100.00,North,-999,-999.0,-999.0,20,-99.99,,,-99.99,,2013-04-27 22:02:00,
2013-04-27 15:12:00,85.0,39.0,-100.00,North,-999,-999.0,-999.0,20,-99.99,,,-99.99,,2013-04-27 22:12:00,
2013-04-27 15:22:00,85.0,39.0,-100.00,North,-999,-999.0,-999.0,20,-99.99,,,-99.99,,2013-04-27 22:22:00,
2013-04-27 15:32:00,87.0,35.0,-100.00,North,-999,-999.0,-999.0,16,-99.99,,,-99.99,,2013-04-27 22:32:00,
2013-04-27 15:42:00,87.0,35.0,-100.00,North,-999,-999.0,-999.0,16,-99.99,,,-99.99,,2013-04-27 22:42:00,
2013-04-27 15:52:00,87.0,35.0,-100.00,North,-999,-999.0,-999.0,16,-99.99,,,-99.99,,2013-04-27 22:52:00,
2013-04-27 16:02:00,87.0,32.0,-100.00,North,-999,-999.0,-999.0,14,-99.99,,,-99.99,,2013-04-27 23:02:00,
2013-04-27 16:11:00,87.0,32.0,-100.00,North,-999,-999.0,-999.0,14,-99.99,,,-99.99,,2013-04-27 23:11:00,
2013-04-27 16:22:00,87.0,32.0,-100.00,North,-999,-999.0,-999.0,14,-99.99,,,-99.99,,2013-04-27 23:22:00,
2013-04-27 16:32:00,85.0,29.0,-100.00,North,-999,-999.0,-999.0,13,-99.99,,,-99.99,,2013-04-27 23:32:00,
2013-04-27 16:42:00,85.0,29.0,-100.00,North,-999,-999.0,-999.0,13,-99.99,,,-99.99,,2013-04-27 23:42:00,
2013-04-27 16:52:00,85.0,29.0,-100.00,North,-999,-999.0,-999.0,13,-99.99,,,-99.99,,2013-04-27 23:52:00,
2013-04-27 17:01:00,85.0,34.0,-100.00,North,-999,-999.0,-999.0,16,-99.99,,,-99.99,,2013-04-28 00:01:00,
2013-04-27 17:11:00,85.0,34.0,-100.00,North,-999,-999.0,-999.0,16,-99.99,,,-99.99,,2013-04-28 00:11:00,
2013-04-27 17:21:00,85.0,34.0,-100.00,North,-999,-999.0,-999.0,16,-99.99,,,-99.99,,2013-04-28 00:21:00,
2013-04-27 17:31:00,84.0,30.0,-100.00,North,-999,-999.0,-999.0,14,-99.99,,,-99.99,,2013-04-28 00:31:00,
2013-04-27 17:43:00,84.0,30.0,-100.00,North,-999,-999.0,-999.0,14,-99.99,,,-99.99,,2013-04-28 00:43:00,
2013-04-27 18:01:00,83.0,27.0,-100.00,North,-999,-999.0,-999.0,13,-99.99,,,-99.99,,2013-04-28 01:01:00,
2013-04-27 18:11:00,83.0,27.0,-100.00,North,-999,-999.0,-999.0,13,-99.99,,,-99.99,,2013-04-28 01:11:00,
2013-04-27 18:21:00,83.0,27.0,-100.00,North,-999,-999.0,-999.0,13,-99.99,,,-99.99,,2013-04-28 01:21:00,
2013-04-27 18:31:00,82.0,28.0,-100.00,North,-999,-999.0,-999.0,14,-99.99,,,-99.99,,2013-04-28 01:31:00,
2013-04-27 18:42:00,82.0,28.0,-100.00,North,-999,-999.0,-999.0,14,-99.99,,,-99.99,,2013-04-28 01:42:00,
2013-04-27 18:52:00,82.0,28.0,-100.00,North,-999,-999.0,-999.0,14,-99.99,,,-99.99,,2013-04-28 01:52:00,
2013-04-27 19:01:00,81.0,27.0,-100.00,North,-999,-999.0,-999.0,14,-99.99,,,-99.99,,2013-04-28 02:01:00,
2013-04-27 19:12:00,81.0,27.0,-100.00,North,-999,-999.0,-999.0,14,-99.99,,,-99.99,,2013-04-28 02:12:00,
2013-04-27 19:21:00,81.0,27.0,-100.00,North,-999,-999.0,-999.0,14,-99.99,,,-99.99,,2013-04-28 02:21:00,
2013-04-27 19:31:00,80.0,30.0,-100.00,North,-999,-999.0,-999.0,16,-99.99,,,-99.99,,2013-04-28 02:31:00,
2013-04-27 19:42:00,80.0,30.0,-100.00,North,-999,-999.0,-999.0,16,-99.99,,,-99.99,,2013-04-28 02:42:00,
2013-04-27 19:52:00,76.0,33.0,-100.00,North,-999,-999.0,-999.0,21,-99.99,,,-99.99,,2013-04-28 02:52:00,
2013-04-27 20:01:00,76.0,33.0,-100.00,North,-999,-999.0,-999.0,21,-99.99,,,-99.99,,2013-04-28 03:01:00,
2013-04-27 20:11:00,76.0,33.0,-100.00,North,-999,-999.0,-999.0,21,-99.99,,,-99.99,,2013-04-28 03:11:00,
2013-04-27 20:21:00,76.0,33.0,-100.00,North,-999,-999.0,-999.0,21,-99.99,,,-99.99,,2013-04-28 03:21:00,
2013-04-27 20:32:00,76.0,33.0,-100.00,North,-999,-999.0,-999.0,21,-99.99,,,-99.99,,2013-04-28 03:32:00,
2013-04-27 21:02:00,68.0,34.0,-100.00,North,-999,-999.0,-999.0,28,-99.99,,,-99.99,,2013-04-28 04:02:00,
2013-04-27 21:13:00,68.0,34.0,-100.00,North,-999,-999.0,-999.0,28,-99.99,,,-99.99,,2013-04-28 04:13:00,
2013-04-27 21:22:00,68.0,34.0,-100.00,North,-999,-999.0,-999.0,28,-99.99,,,-99.99,,2013-04-28 04:22:00,
2013-04-27 21:32:00,70.0,35.0,-100.00,North,-999,-999.0,-999.0,28,-99.99,,,-99.99,,2013-04-28 04:32:00,
2013-04-27 21:43:00,70.0,35.0,-100.00,North,-999,-999.0,-999.0,28,-99.99,,,-99.99,,2013-04-28 04:43:00,
2013-04-27 21:53:00,70.0,35.0,-100.00,North,-999,-999.0,-999.0,28,-99.99,,,-99.99,,2013-04-28 04:53:00,
2013-04-27 22:02:00,70.0,35.0,-100.00,North,-999,-999.0,-999.0,28,-99.99,,,-99.99,,2013-04-28 05:02:00,
2013-04-27 22:32:00,65.0,34.0,-100.00,North,-999,-999.0,-999.0,32,-99.99,,,-99.99,,2013-04-28 05:32:00,
2013-04-27 22:42:00,65.0,34.0,-100.00,North,-999,-999.0,-999.0,32,-99.99,,,-99.99,,2013-04-28 05:42:00,
2013-04-27 22:52:00,65.0,34.0,-100.00,North,-999,-999.0,-999.0,32,-99.99,,,-99.99,,2013-04-28 05:52:00,
2013-04-27 23:01:00,62.0,33.0,-100.00,North,-999,-999.0,-999.0,34,-99.99,,,-99.99,,2013-04-28 06:01:00,
2013-04-27 23:12:00,62.0,33.0,-100.00,North,-999,-999.0,-999.0,34,-99.99,,,-99.99,,2013-04-28 06:12:00,
2013-04-27 23:21:00,62.0,33.0,-100.00,North,-999,-999.0,-999.0,34,-99.99,,,-99.99,,2013-04-28 06:21:00,
2013-04-27 23:32:00,57.0,33.0,-100.00,North,-999,-999.0,-999.0,40,-99.99,,,-99.99,,2013-04-28 06:32:00,
2013-04-27 23:42:00,57.0,33.0,-100.00,North,-999,-999.0,-999.0,40,-99.99,,,-99.99,,2013-04-28 06:42:00,
2013-04-27 23:52:00,57.0,33.0,-100.00,North,-999,-999.0,-999.0,40,-99.99,,,-99.99,,2013-04-28 06:52:00,